createdAt,value
2018-02-16T00:02:27.319Z,80.67
2018-02-16T00:05:17.298Z,79.03
2018-02-16T00:08:06.362Z,86.83
2018-02-16T00:10:56.690Z,93.73
2018-02-16T00:14:05.986Z,92.67
2018-02-16T00:16:37.413Z,94.33
2018-02-16T00:19:07.436Z,100.80
2018-02-16T00:21:58.369Z,102.00
2018-02-16T00:24:48.992Z,110.90
2018-02-16T00:27:38.141Z,109.07
2018-02-16T00:30:27.651Z,104.10
2018-02-16T00:33:36.838Z,97.40
2018-02-16T00:36:47.048Z,88.60
2018-02-16T00:39:56.332Z,109.90
2018-02-16T00:42:27.284Z,114.10
2018-02-16T00:45:16.996Z,116.67
2018-02-16T00:47:46.563Z,109.90
2018-02-16T00:50:15.778Z,93.50
2018-02-16T00:53:05.268Z,87.47
2018-02-16T00:55:35.040Z,96.00
2018-02-16T00:58:44.111Z,79.37
2018-02-16T01:01:13.878Z,80.23
2018-02-16T01:03:43.240Z,83.00
2018-02-16T01:06:12.508Z,71.13
2018-02-16T01:08:42.096Z,88.03
2018-02-16T01:11:11.633Z,74.90
2018-02-16T01:13:42.407Z,77.03
2018-02-16T01:16:12.826Z,72.63
2018-02-16T01:18:42.198Z,75.03
2018-02-16T01:21:11.420Z,80.17
2018-02-16T01:23:41.941Z,81.43
2018-02-16T01:26:11.149Z,69.23
2018-02-16T01:28:40.372Z,70.37
2018-02-16T01:31:10.634Z,72.50
2018-02-16T01:33:39.854Z,73.50
2018-02-16T01:36:09.066Z,74.70
2018-02-16T01:38:38.586Z,75.13
2018-02-16T01:41:08.773Z,81.03
2018-02-16T01:43:37.979Z,77.00
2018-02-16T01:46:09.085Z,70.40
2018-02-16T01:48:38.283Z,74.67
2018-02-16T01:51:08.718Z,75.60
2018-02-16T01:53:38.225Z,84.47
2018-02-16T01:56:07.542Z,79.27
2018-02-16T01:58:36.781Z,81.20
2018-02-16T02:01:07.171Z,81.83
2018-02-16T02:03:36.378Z,77.37
2018-02-16T02:06:09.439Z,83.87
2018-02-16T02:08:38.816Z,81.00
2018-02-16T02:11:08.064Z,83.93
2018-02-16T02:13:37.611Z,86.87
2018-02-16T02:16:07.819Z,81.60
2018-02-16T02:18:37.036Z,88.03
2018-02-16T02:21:06.864Z,74.87
2018-02-16T02:23:36.475Z,74.30
2018-02-16T02:26:07.594Z,71.50
2018-02-16T02:28:37.258Z,72.47
2018-02-16T02:31:08.838Z,68.67
2018-02-16T02:33:38.056Z,76.03
2018-02-16T02:36:08.301Z,79.37
2018-02-16T02:38:37.576Z,69.67
2018-02-16T02:41:06.865Z,73.67
2018-02-16T02:43:36.390Z,72.00
2018-02-16T02:46:07.203Z,81.30
2018-02-16T02:48:36.401Z,73.57
2018-02-16T02:51:06.127Z,61.60
2018-02-16T02:53:35.345Z,71.90
2018-02-16T02:56:07.059Z,58.40
2018-02-16T02:58:36.602Z,60.60
2018-02-16T03:01:06.277Z,64.00
2018-02-16T03:03:35.488Z,69.10
2018-02-16T03:06:05.821Z,66.80
2018-02-16T03:08:35.512Z,58.70
2018-02-16T03:11:06.551Z,66.80
2018-02-16T03:13:36.085Z,66.70
2018-02-16T03:16:06.183Z,65.00
2018-02-16T03:18:35.459Z,65.27
2018-02-16T03:21:06.734Z,66.30
2018-02-16T03:23:36.355Z,71.93
2018-02-16T03:26:06.488Z,66.77
2018-02-16T03:28:35.987Z,59.90
2018-02-16T03:31:06.493Z,62.40
2018-02-16T03:33:35.794Z,63.10
2018-02-16T03:36:06.836Z,66.90
2018-02-16T03:38:36.802Z,62.40
2018-02-16T03:41:06.327Z,62.67
2018-02-16T03:43:35.555Z,63.00
2018-02-16T03:46:06.929Z,65.53
2018-02-16T03:48:36.171Z,73.43
2018-02-16T03:51:06.727Z,78.00
2018-02-16T03:53:36.033Z,69.23
2018-02-16T03:56:06.643Z,87.73
2018-02-16T03:58:36.908Z,81.80
2018-02-16T04:01:09.009Z,92.17
2018-02-16T04:03:38.222Z,89.83
2018-02-16T04:06:07.778Z,97.90
2018-02-16T04:08:37.001Z,89.90
2018-02-16T04:11:06.355Z,108.83
2018-02-16T04:13:35.862Z,106.37
2018-02-16T04:16:06.674Z,107.93
2018-02-16T04:18:35.909Z,139.67
2018-02-16T04:21:07.009Z,114.60
2018-02-16T04:23:36.250Z,115.03
2018-02-16T04:26:06.433Z,84.57
2018-02-16T04:28:35.979Z,89.60
2018-02-16T04:31:06.215Z,91.83
2018-02-16T04:33:35.784Z,86.87
2018-02-16T04:36:09.985Z,74.03
2018-02-16T04:38:39.178Z,87.77
2018-02-16T04:41:09.396Z,83.63
2018-02-16T04:43:38.908Z,84.70
2018-02-16T04:46:08.187Z,73.43
2018-02-16T04:48:37.423Z,72.27
2018-02-16T04:51:07.102Z,58.20
2018-02-16T04:53:36.345Z,56.10
2018-02-16T04:56:09.767Z,53.47
2018-02-16T04:58:39.335Z,50.93
2018-02-16T05:01:09.710Z,48.67
2018-02-16T05:03:38.951Z,50.40
2018-02-16T05:06:08.245Z,57.13
2018-02-16T05:08:38.330Z,55.53
2018-02-16T05:11:08.737Z,61.73
2018-02-16T05:13:39.238Z,52.60
2018-02-16T05:16:08.649Z,58.67
2018-02-16T05:18:38.473Z,59.37
2018-02-16T05:21:09.040Z,61.03
2018-02-16T05:23:38.449Z,58.57
2018-02-16T05:26:07.676Z,62.47
2018-02-16T05:28:37.210Z,56.60
2018-02-16T05:31:06.718Z,54.53
2018-02-16T05:33:36.755Z,57.50
2018-02-16T05:36:09.874Z,54.53
2018-02-16T05:38:39.098Z,50.73
2018-02-16T05:41:08.995Z,48.67
2018-02-16T05:43:38.896Z,49.50
2018-02-16T05:46:08.208Z,49.13
2018-02-16T05:48:37.730Z,44.90
2018-02-16T05:51:07.054Z,44.20
2018-02-16T05:53:36.261Z,35.70
2018-02-16T05:56:06.960Z,46.50
2018-02-16T05:58:36.265Z,48.47
2018-02-16T06:01:06.385Z,42.87
2018-02-16T06:03:36.195Z,48.47
2018-02-16T06:06:06.720Z,38.33
2018-02-16T06:08:35.914Z,37.87
2018-02-16T06:11:06.715Z,40.07
2018-02-16T06:13:35.953Z,37.47
2018-02-16T06:16:07.502Z,42.07
2018-02-16T06:18:37.079Z,43.37
2018-02-16T06:21:07.869Z,50.60
2018-02-16T06:23:37.146Z,49.23
2018-02-16T06:26:07.707Z,59.83
2018-02-16T06:28:36.979Z,83.43
2018-02-16T06:31:06.456Z,61.60
2018-02-16T06:33:36.078Z,57.30
2018-02-16T06:36:07.467Z,54.53
2018-02-16T06:38:37.089Z,57.23
2018-02-16T06:41:06.868Z,58.10
2018-02-16T06:43:36.201Z,58.90
2018-02-16T06:46:07.237Z,55.17
2018-02-16T06:48:36.761Z,60.53
2018-02-16T06:51:06.392Z,54.00
2018-02-16T06:53:35.637Z,58.00
2018-02-16T06:56:06.282Z,56.20
2018-02-16T06:58:35.523Z,60.43
2018-02-16T07:01:08.123Z,130.33
2018-02-16T07:03:37.681Z,68.03
2018-02-16T07:06:06.995Z,118.63
2018-02-16T07:08:36.435Z,115.17
2018-02-16T07:11:06.558Z,129.10
2018-02-16T07:13:35.793Z,94.03
2018-02-16T07:16:07.123Z,77.50
2018-02-16T07:18:37.130Z,82.67
2018-02-16T07:21:07.125Z,77.07
2018-02-16T07:23:36.409Z,93.47
2018-02-16T07:26:07.015Z,69.63
2018-02-16T07:28:36.344Z,52.70
2018-02-16T07:31:06.460Z,62.37
2018-02-16T07:33:37.122Z,43.07
2018-02-16T07:36:06.711Z,41.43
2018-02-16T07:38:36.009Z,38.50
2018-02-16T07:41:06.138Z,46.47
2018-02-16T07:43:35.399Z,42.50
2018-02-16T07:46:05.933Z,37.83
2018-02-16T07:48:35.506Z,41.70
2018-02-16T07:51:06.540Z,39.90
2018-02-16T07:53:36.163Z,46.67
2018-02-16T07:56:07.548Z,41.03
2018-02-16T07:58:36.826Z,38.63
2018-02-16T08:01:07.248Z,39.70
2018-02-16T08:03:36.498Z,37.40
2018-02-16T08:06:06.579Z,28.00
2018-02-16T08:08:35.878Z,32.43
2018-02-16T08:11:05.850Z,32.27
2018-02-16T08:13:35.249Z,28.77
2018-02-16T08:16:06.074Z,26.30
2018-02-16T08:18:35.588Z,22.20
2018-02-16T08:21:06.349Z,28.50
2018-02-16T08:23:35.619Z,27.50
2018-02-16T08:26:06.650Z,25.80
2018-02-16T08:28:35.918Z,25.57
2018-02-16T08:31:05.676Z,29.90
2018-02-16T08:33:35.235Z,26.27
2018-02-16T08:36:06.217Z,25.27
2018-02-16T08:38:35.449Z,30.30
2018-02-16T08:41:06.066Z,28.77
2018-02-16T08:43:35.306Z,28.60
2018-02-16T08:46:06.196Z,26.13
2018-02-16T08:48:35.711Z,23.67
2018-02-16T08:51:05.835Z,25.87
2018-02-16T08:53:35.117Z,30.30
2018-02-16T08:56:06.448Z,23.53
2018-02-16T08:58:35.933Z,26.57
2018-02-16T09:01:06.487Z,28.87
2018-02-16T09:03:36.169Z,22.87
2018-02-16T09:06:06.467Z,21.60
2018-02-16T09:08:35.714Z,25.70
2018-02-16T09:11:05.901Z,21.93
2018-02-16T09:13:35.132Z,21.07
2018-02-16T09:16:06.606Z,18.30
2018-02-16T09:18:36.329Z,17.63
2018-02-16T09:21:06.926Z,24.10
2018-02-16T09:23:36.154Z,22.90
2018-02-16T09:26:07.626Z,24.00
2018-02-16T09:28:36.970Z,22.57
2018-02-16T09:31:06.843Z,28.83
2018-02-16T09:33:37.638Z,27.03
2018-02-16T09:36:11.964Z,26.10
2018-02-16T09:38:42.933Z,26.80
2018-02-16T09:41:12.896Z,31.90
2018-02-16T09:43:42.137Z,28.80
2018-02-16T09:46:11.770Z,28.60
2018-02-16T09:48:41.035Z,30.57
2018-02-16T09:51:10.294Z,30.40
2018-02-16T09:53:39.881Z,29.37
2018-02-16T09:56:13.843Z,29.37
2018-02-16T09:58:43.126Z,36.63
2018-02-16T10:01:12.673Z,40.63
2018-02-16T10:03:41.911Z,39.93
2018-02-16T10:06:11.182Z,44.33
2018-02-16T10:08:40.685Z,46.10
2018-02-16T10:11:10.121Z,47.10
2018-02-16T10:13:39.395Z,37.60
2018-02-16T10:16:09.312Z,43.23
2018-02-16T10:18:38.530Z,39.30
2018-02-16T10:21:08.139Z,38.23
2018-02-16T10:23:37.710Z,35.13
2018-02-16T10:26:07.008Z,36.07
2018-02-16T10:28:36.273Z,29.33
2018-02-16T10:31:07.621Z,31.43
2018-02-16T10:33:36.841Z,32.20
2018-02-16T10:36:07.207Z,23.80
2018-02-16T10:38:36.754Z,26.80
2018-02-16T10:41:07.024Z,25.20
2018-02-16T10:43:37.067Z,29.73
2018-02-16T10:46:07.492Z,27.90
2018-02-16T10:48:36.778Z,28.63
2018-02-16T10:51:06.160Z,27.70
2018-02-16T10:53:37.758Z,27.87
2018-02-16T10:56:07.069Z,36.20
2018-02-16T10:58:36.276Z,36.40
2018-02-16T11:01:11.614Z,32.50
2018-02-16T11:03:41.922Z,25.33
2018-02-16T11:06:13.513Z,32.57
2018-02-16T11:08:46.799Z,35.30
2018-02-16T11:11:17.041Z,32.90
2018-02-16T11:13:46.584Z,36.33
2018-02-16T11:16:16.078Z,26.13
2018-02-16T11:18:45.444Z,32.03
2018-02-16T11:21:16.498Z,29.07
2018-02-16T11:23:46.836Z,31.47
2018-02-16T11:26:16.316Z,27.80
2018-02-16T11:28:46.041Z,33.43
2018-02-16T11:31:15.290Z,30.27
2018-02-16T11:33:45.870Z,36.37
2018-02-16T11:36:16.489Z,32.70
2018-02-16T11:38:45.940Z,26.07
2018-02-16T11:41:15.445Z,27.40
2018-02-16T11:43:46.833Z,23.63
2018-02-16T11:46:18.711Z,26.90
2018-02-16T11:48:48.215Z,27.73
2018-02-16T11:51:17.844Z,29.00
2018-02-16T11:53:47.119Z,24.33
2018-02-16T11:56:16.309Z,22.30
2018-02-16T11:58:46.066Z,27.73
2018-02-16T12:01:15.541Z,28.93
2018-02-16T12:03:45.128Z,27.93
2018-02-16T12:06:17.035Z,34.33
2018-02-16T12:08:47.256Z,32.97
2018-02-16T12:11:17.027Z,24.57
2018-02-16T12:13:47.656Z,25.10
2018-02-16T12:16:17.500Z,21.23
2018-02-16T12:18:46.967Z,28.33
2018-02-16T12:21:16.803Z,30.93
2018-02-16T12:23:46.058Z,26.70
2018-02-16T12:26:15.307Z,26.87
2018-02-16T12:28:44.816Z,22.53
2018-02-16T12:31:15.194Z,29.80
2018-02-16T12:33:44.518Z,25.27
2018-02-16T12:36:14.171Z,25.30
2018-02-16T12:38:43.826Z,23.93
2018-02-16T12:41:13.116Z,27.33
2018-02-16T12:43:43.101Z,25.33
2018-02-16T12:46:12.422Z,22.83
2018-02-16T12:48:41.996Z,23.93
2018-02-16T12:51:12.507Z,26.33
2018-02-16T12:53:41.787Z,26.17
2018-02-16T12:56:11.060Z,25.47
2018-02-16T12:58:41.841Z,26.50
2018-02-16T13:01:11.324Z,27.10
2018-02-16T13:03:40.552Z,25.73
2018-02-16T13:06:10.940Z,33.13
2018-02-16T13:08:40.390Z,43.30
2018-02-16T13:11:11.644Z,26.73
2018-02-16T13:13:41.281Z,29.97
2018-02-16T13:16:10.558Z,30.83
2018-02-16T13:18:39.774Z,23.70
2018-02-16T13:21:09.516Z,32.97
2018-02-16T13:23:38.881Z,25.20
2018-02-16T13:26:09.203Z,22.17
2018-02-16T13:28:38.742Z,28.10
2018-02-16T13:31:09.273Z,28.17
2018-02-16T13:33:39.185Z,29.00
2018-02-16T13:36:09.618Z,22.80
2018-02-16T13:38:40.007Z,27.77
2018-02-16T13:41:09.569Z,32.30
2018-02-16T13:43:39.171Z,22.90
2018-02-16T13:46:08.534Z,25.20
2018-02-16T13:48:38.016Z,28.90
2018-02-16T13:51:07.744Z,25.57
2018-02-16T13:53:37.047Z,31.63
2018-02-16T13:56:07.250Z,24.73
2018-02-16T13:58:36.920Z,24.13
2018-02-16T14:01:07.634Z,25.57
2018-02-16T14:03:36.963Z,23.93
2018-02-16T14:06:07.681Z,28.17
2018-02-16T14:08:36.932Z,27.97
2018-02-16T14:11:06.189Z,22.30
2018-02-16T14:13:36.851Z,23.43
2018-02-16T14:16:08.205Z,22.97
2018-02-16T14:18:38.269Z,16.83
2018-02-16T14:21:08.743Z,30.70
2018-02-16T14:23:38.006Z,25.73
2018-02-16T14:26:07.482Z,24.10
2018-02-16T14:28:37.275Z,35.63
2018-02-16T14:31:06.617Z,22.00
2018-02-16T14:33:35.887Z,21.13
2018-02-16T14:36:06.489Z,22.33
2018-02-16T14:38:36.192Z,22.87
2018-02-16T14:41:07.676Z,19.10
2018-02-16T14:43:38.796Z,24.63
2018-02-16T14:46:09.279Z,28.90
2018-02-16T14:48:39.311Z,27.07
2018-02-16T14:51:10.058Z,34.07
2018-02-16T14:53:40.040Z,33.40
2018-02-16T14:56:09.387Z,22.47
2018-02-16T14:58:38.984Z,21.97
2018-02-16T15:01:08.960Z,15.70
2018-02-16T15:03:38.183Z,17.50
2018-02-16T15:06:09.068Z,25.73
2018-02-16T15:08:38.967Z,28.53
2018-02-16T15:11:10.043Z,20.90
2018-02-16T15:13:39.606Z,21.10
2018-02-16T15:16:08.899Z,21.23
2018-02-16T15:18:38.194Z,20.50
2018-02-16T15:21:07.860Z,23.30
2018-02-16T15:23:37.230Z,20.03
2018-02-16T15:26:06.476Z,15.67
2018-02-16T15:28:36.566Z,29.47
2018-02-16T15:31:07.836Z,32.00
2018-02-16T15:33:37.160Z,15.30
2018-02-16T15:36:07.610Z,22.23
2018-02-16T15:38:36.950Z,27.23
2018-02-16T15:41:07.062Z,27.43
2018-02-16T15:46:36.085Z,25.47
2018-02-16T15:49:06.300Z,18.50
2018-02-16T15:51:35.623Z,18.77
2018-02-16T15:54:06.616Z,18.57
2018-02-16T15:56:36.505Z,30.43
2018-02-16T15:59:09.602Z,16.83
2018-02-16T16:01:38.843Z,22.20
2018-02-16T16:04:08.398Z,12.80
2018-02-16T16:06:37.793Z,26.17
2018-02-16T16:09:07.262Z,19.97
2018-02-16T16:11:36.778Z,13.50
2018-02-16T16:14:08.883Z,19.50
2018-02-16T16:16:38.154Z,24.73
2018-02-16T16:19:07.699Z,22.33
2018-02-16T16:21:36.950Z,22.10
2018-02-16T16:24:06.985Z,15.47
2018-02-16T16:26:36.552Z,18.97
2018-02-16T16:29:07.096Z,15.60
2018-02-16T16:31:36.421Z,19.77
2018-02-16T16:34:06.985Z,17.67
2018-02-16T16:36:36.272Z,29.03
2018-02-16T16:39:08.140Z,32.50
2018-02-16T16:41:40.121Z,30.83
2018-02-16T16:44:10.613Z,24.87
2018-02-16T16:46:40.430Z,15.67
2018-02-16T16:49:10.275Z,23.73
2018-02-16T16:51:39.705Z,19.30
2018-02-16T16:54:10.171Z,29.77
2018-02-16T16:56:39.755Z,24.83
2018-02-16T16:59:09.066Z,25.87
2018-02-16T17:01:38.311Z,28.47
2018-02-16T17:04:08.430Z,18.60
2018-02-16T17:06:38.907Z,18.20
2018-02-16T17:09:08.440Z,21.90
2018-02-16T17:11:38.170Z,21.27
2018-02-16T17:14:07.698Z,21.23
2018-02-16T17:16:37.319Z,18.77
2018-02-16T17:19:09.362Z,18.93
2018-02-16T17:21:38.979Z,18.20
2018-02-16T17:24:09.212Z,28.00
2018-02-16T17:26:38.971Z,21.60
2018-02-16T17:29:09.719Z,16.47
2018-02-16T17:31:38.951Z,22.77
2018-02-16T17:34:09.514Z,18.90
2018-02-16T17:36:39.210Z,22.63
2018-02-16T17:39:08.502Z,27.53
2018-02-16T17:41:38.179Z,31.87
2018-02-16T17:44:07.808Z,26.70
2018-02-16T17:46:37.107Z,32.17
2018-02-16T17:49:07.046Z,25.70
2018-02-16T17:51:36.930Z,52.10
2018-02-16T17:54:08.044Z,39.00
2018-02-16T17:56:38.509Z,59.03
2018-02-16T17:59:09.617Z,44.67
2018-02-16T18:01:39.213Z,33.83
2018-02-16T18:04:08.687Z,30.90
2018-02-16T18:06:38.416Z,41.60
2018-02-16T18:09:08.171Z,32.70
2018-02-16T18:11:37.707Z,30.40
2018-02-16T18:15:10.502Z,21.63
2018-02-16T18:17:40.091Z,24.10
2018-02-16T18:20:10.293Z,21.40
2018-02-16T18:22:39.839Z,25.17
2018-02-16T18:25:09.213Z,15.83
2018-02-16T18:27:38.614Z,25.63
2018-02-16T18:30:08.926Z,22.03
2018-02-16T18:32:38.163Z,24.47
2018-02-16T18:35:07.633Z,34.30
2018-02-16T18:37:37.161Z,25.50
2018-02-16T18:40:09.198Z,31.63
2018-02-16T18:42:38.416Z,39.87
2018-02-16T18:45:08.127Z,26.60
2018-02-16T18:47:37.343Z,52.93
2018-02-16T18:50:09.023Z,41.87
2018-02-16T18:52:38.999Z,35.83
2018-02-16T18:55:08.696Z,41.07
2018-02-16T18:57:40.207Z,38.57
2018-02-16T19:00:11.152Z,31.83
2018-02-16T19:02:40.421Z,24.70
2018-02-16T19:05:11.275Z,20.63
2018-02-16T19:07:41.399Z,27.43
2018-02-16T19:10:10.755Z,19.93
2018-02-16T19:12:40.646Z,33.93
2018-02-16T19:15:10.688Z,48.97
2018-02-16T19:17:40.348Z,68.53
2018-02-16T19:23:04.120Z,62.90
2018-02-16T19:25:37.116Z,75.40
2018-02-16T19:28:09.630Z,86.93
2018-02-16T19:30:39.126Z,53.37
2018-02-16T19:33:08.588Z,69.87
2018-02-16T19:35:38.207Z,79.87
2018-02-16T19:38:13.755Z,79.50
2018-02-16T19:40:43.502Z,64.13
2018-02-16T19:43:12.853Z,74.43
2018-02-16T19:45:42.183Z,87.90
2018-02-16T19:48:12.074Z,69.90
2018-02-16T19:50:41.301Z,65.77
2018-02-16T19:53:10.879Z,51.87
2018-02-16T19:55:40.680Z,62.83
2018-02-16T19:58:27.042Z,37.43
2018-02-16T20:01:08.337Z,18.10
2018-02-16T20:03:38.840Z,15.90
2018-02-16T20:06:08.513Z,24.40
2018-02-16T20:08:38.079Z,23.10
2018-02-16T20:11:07.506Z,20.03
2018-02-16T20:13:36.721Z,16.20
2018-02-16T20:16:10.773Z,27.63
2018-02-16T20:18:40.046Z,31.67
2018-02-16T20:21:10.073Z,33.33
2018-02-16T20:23:39.716Z,43.80
2018-02-16T20:26:09.081Z,45.03
2018-02-16T20:28:38.302Z,53.40
2018-02-16T20:31:08.901Z,54.03
2018-02-16T20:33:38.686Z,53.83
2018-02-16T20:36:08.170Z,54.93
2018-02-16T20:38:37.832Z,50.60
2018-02-16T20:41:08.256Z,59.43
2018-02-16T20:43:37.778Z,77.90
2018-02-16T20:46:08.435Z,19.00
2018-02-16T20:48:37.832Z,23.90
2018-02-16T20:51:07.815Z,28.43
2018-02-16T20:53:38.261Z,23.90
2018-02-16T20:56:07.549Z,28.03
2018-02-16T20:58:36.861Z,23.87
2018-02-16T21:01:06.842Z,23.27
2018-02-16T21:03:36.102Z,29.33
2018-02-16T21:06:12.092Z,21.50
2018-02-16T21:08:44.375Z,27.17
2018-02-16T21:11:14.012Z,23.93
2018-02-16T21:13:43.555Z,21.53
2018-02-16T21:16:13.282Z,29.67
2018-02-16T21:18:42.512Z,26.33
2018-02-16T21:21:13.056Z,24.47
2018-02-16T21:26:28.094Z,25.37
2018-02-16T21:29:04.664Z,22.43
2018-02-16T21:31:34.136Z,23.83
2018-02-16T21:34:08.227Z,21.50
2018-02-16T21:36:38.751Z,201.77
2018-02-16T21:39:10.552Z,46.60
2018-02-16T21:41:40.180Z,24.10
2018-02-16T21:44:09.991Z,24.57
2018-02-16T21:46:39.784Z,30.13
2018-02-16T21:49:10.233Z,27.27
2018-02-16T21:51:39.471Z,30.73
2018-02-16T21:54:14.246Z,25.60
2018-02-16T21:56:44.901Z,19.70
2018-02-16T21:59:37.504Z,33.03
2018-02-16T22:02:12.066Z,35.80
2018-02-16T22:04:41.893Z,35.50
2018-02-16T22:07:13.562Z,32.03
2018-02-16T22:09:44.040Z,33.80
2018-02-16T22:12:13.849Z,37.20
2018-02-16T22:14:43.652Z,30.33
2018-02-16T22:17:13.651Z,58.27
2018-02-16T22:19:43.395Z,43.20
2018-02-16T22:22:19.075Z,36.00
2018-02-16T22:24:49.493Z,30.17
2018-02-16T22:27:31.378Z,37.43
2018-02-16T22:30:06.920Z,37.00
2018-02-16T22:32:38.859Z,36.53
2018-02-16T22:35:13.177Z,31.03
2018-02-16T22:37:42.563Z,20.80
2018-02-16T22:40:16.541Z,25.77
2018-02-16T22:42:46.230Z,30.43
2018-02-16T22:45:18.965Z,31.33
2018-02-16T22:47:48.627Z,23.83
2018-02-16T22:50:18.397Z,24.33
2018-02-16T22:52:47.743Z,27.80
2018-02-16T22:55:19.591Z,21.10
2018-02-16T22:57:50.188Z,23.20
2018-02-16T23:00:26.861Z,22.33
2018-02-16T23:03:03.630Z,29.70
2018-02-16T23:05:39.171Z,20.07
2018-02-16T23:08:13.440Z,33.77
2018-02-16T23:10:50.925Z,21.90
2018-02-16T23:13:22.848Z,14.90
2018-02-16T23:15:52.706Z,22.00
2018-02-16T23:18:28.935Z,19.97
2018-02-16T23:20:58.408Z,21.13
2018-02-16T23:23:30.074Z,23.17
2018-02-16T23:26:07.440Z,27.50
2018-02-16T23:28:38.878Z,23.67
2018-02-16T23:31:08.318Z,27.83
2018-02-16T23:33:37.562Z,28.10
2018-02-16T23:36:08.164Z,33.07
2018-02-16T23:38:37.981Z,21.93
2018-02-16T23:41:15.360Z,22.57
2018-02-16T23:43:45.017Z,29.13
2018-02-16T23:46:15.001Z,26.97
2018-02-16T23:49:00.867Z,25.47
2018-02-16T23:51:31.559Z,27.00
2018-02-16T23:54:02.669Z,25.67
2018-02-16T23:56:33.547Z,34.83
2018-02-16T23:59:04.258Z,25.10
